Latest Weather Observations for Perth Airport

IDW60801

Issued at 9:43 pm WST Friday 15 November 2019 (issued every 10 minutes, with the page automatically refreshed every 10 minutes)

About weather observations | Map of weather stations | Latest weather observations for WA | Other Formats
Station Details ID: 009021 Name: PERTH AIRPORT Lat: -31.93 Lon: 115.98 Height: 15.4 m
Data from the previous 72 hours. | See also: Recent months at Perth Airport
Date/Time
WST
Temp
°C
App
Temp
°C
Dew
Point
°C
Rel
Hum
%
Delta-T
°C
Wind Press
QNH
hPa
Press
MSL
hPa
Rain since
9am
mm
Dir  Spd
km/h
Gust
km/h
Spd
kts
Gust
kts
15/09:30pm 24.8 23.6 15.1 54 5.8 SSW 15 19 8 10 1012.1 1012.0 0.0
15/09:00pm 26.3 25.2 14.4 48 7.1 SSW 13 15 7 8 1012.2 1012.1 0.0
15/08:30pm 28.8 27.4 14.6 42 8.6 SSW 15 17 8 9 1012.2 1012.1 0.0
15/08:00pm 29.6 28.2 13.4 37 9.7 SSW 13 17 7 9 1012.1 1012.0 0.0
15/07:30pm 31.2 29.5 12.5 31 11.1 SW 13 17 7 9 1011.8 1011.7 0.0
15/07:00pm 32.0 30.0 12.8 31 11.5 SW 15 19 8 10 1011.6 1011.5 0.0
15/06:30pm 33.8 31.3 12.2 27 12.9 SW 17 20 9 11 1011.2 1011.1 0.0
15/06:00pm 35.2 31.9 11.6 24 14.0 SSW 20 26 11 14 1010.7 1010.6 0.0
15/05:30pm 37.2 33.2 8.1 17 16.5 S 19 28 10 15 1010.3 1010.2 0.0
15/05:00pm 37.8 33.5 7.7 16 17.1 S 20 30 11 16 1010.1 1010.0 0.0
15/04:30pm 37.9 34.7 6.8 15 17.4 SSW 13 22 7 12 1010.3 1010.2 0.0
15/04:00pm 37.7 34.1 6.6 15 17.3 SSE 15 20 8 11 1010.4 1010.3 0.0
15/03:30pm 37.9 34.7 6.8 15 17.4 S 13 22 7 12 1010.6 1010.5 0.0
15/03:00pm 37.6 34.0 6.6 15 17.3 SE 15 24 8 13 1010.9 1010.8 0.0
15/02:30pm 37.3 33.8 7.3 16 16.8 ENE 15 24 8 13 1011.2 1011.1 0.0
15/02:00pm 37.0 33.5 7.0 16 16.7 ENE 15 30 8 16 1011.6 1011.5 0.0
15/01:30pm 36.8 32.9 8.6 18 16.1 ESE 19 28 10 15 1012.0 1011.9 0.0
15/01:00pm 35.6 31.4 9.9 21 14.9 E 22 33 12 18 1012.3 1012.2 0.0
15/12:30pm 35.1 31.4 9.5 21 14.7 E 19 30 10 16 1012.7 1012.6 0.0
15/12:00pm 33.5 27.5 10.2 24 13.4 ESE 32 41 17 22 1012.6 1012.5 0.0
15/11:30am 32.7 25.2 9.5 24 13.2 E 39 50 21 27 1012.5 1012.4 0.0
15/11:00am 32.1 25.6 10.2 26 12.5 E 35 48 19 26 1012.6 1012.5 0.0
15/10:30am 30.6 24.4 10.0 28 11.7 E 33 46 18 25 1013.2 1013.2 0.0
15/10:00am 29.2 22.6 9.9 30 10.9 ESE 35 44 19 24 1013.9 1013.9 0.0
15/09:30am 28.0 21.7 9.8 32 10.2 E 33 48 18 26 1014.3 1014.3 0.0
15/09:00am 26.4 20.2 10.1 36 9.1 E 33 41 18 22 1014.2 1014.2 0.0
15/08:30am 24.7 19.9 10.2 40 8.0 ENE 26 35 14 19 1014.6 1014.6 0.0
15/08:00am 21.7 17.5 9.9 47 6.4 NE 22 37 12 20 1014.7 1014.7 0.0
15/07:30am 22.5 17.5 9.6 44 7.0 ENE 26 37 14 20 1014.6 1014.6 0.0
15/07:00am 21.0 15.6 9.6 48 6.1 E 28 41 15 22 1014.8 1014.8 0.0
15/06:55am 20.6 15.2 9.5 49 5.9 ENE 28 39 15 21 1014.8 1014.8 0.0
15/06:30am 20.1 17.9 9.4 50 5.7 E 11 19 6 10 1014.6 1014.6 0.0
15/06:00am 19.8 15.0 8.8 49 5.8 E 24 33 13 18 1014.1 1014.1 0.0
15/05:30am 20.1 17.3 8.4 47 6.1 ESE 13 24 7 13 1013.5 1013.5 0.0
15/05:00am 20.3 17.4 8.3 46 6.2 ESE 13 22 7 12 1013.8 1013.8 0.0
15/04:30am 20.5 16.6 8.5 46 6.3 E 19 39 10 21 1013.7 1013.7 0.0
15/04:00am 21.1 17.8 8.0 43 6.8 SE 15 28 8 15 1013.8 1013.8 0.0
15/03:30am 21.5 18.2 8.1 42 7.0 E 15 33 8 18 1013.6 1013.6 0.0
15/03:00am 22.1 18.5 8.2 41 7.3 E 17 32 9 17 1013.3 1013.3 0.0
15/02:30am 22.8 19.8 7.8 38 7.9 E 13 26 7 14 1013.3 1013.3 0.0
15/02:00am 23.3 19.6 7.8 37 8.1 ESE 17 33 9 18 1013.5 1013.5 0.0
15/01:30am 23.6 19.9 9.6 41 7.6 ESE 19 30 10 16 1013.4 1013.4 0.0
15/01:00am 24.3 20.0 10.6 42 7.6 ESE 24 37 13 20 1013.1 1013.1 0.0
15/12:36am 25.1 18.4 10.9 41 8.0 ESE 37 56 20 30 1012.8 1012.7 0.0
15/12:30am 25.2 18.1 11.0 41 8.0 ESE 39 56 21 30 1012.7 1012.6 0.0
15/12:03am 26.1 20.4 11.1 39 8.5 ESE 32 50 17 27 1012.9 1012.8 0.0
15/12:00am 26.2 19.9 11.2 39 8.5 ESE 35 50 19 27 1012.8 1012.7 0.0
 
Date/Time
WST
Temp
°C
App
Temp
°C
Dew
Point
°C
Rel
Hum
%
Delta-T
°C
Wind Press
QNH
hPa
Press
MSL
hPa
Rain since
9am
mm
Dir  Spd
km/h
Gust
km/h
Spd
kts
Gust
kts
14/11:41pm 27.0 22.0 11.1 37 9.0 ESE 28 50 15 27 1012.8 1012.7 0.0
14/11:30pm 27.4 23.2 11.0 36 9.3 ESE 24 43 13 23 1012.9 1012.8 0.0
14/11:00pm 28.1 26.3 10.8 34 9.8 SE 11 15 6 8 1013.2 1013.2 0.0
14/10:30pm 28.5 25.8 10.2 32 10.3 SSE 15 19 8 10 1013.1 1013.1 0.0
14/10:00pm 27.2 25.0 12.0 38 8.8 SSW 15 19 8 10 1013.1 1013.1 0.0
14/09:30pm 27.2 24.6 13.2 42 8.2 SSW 19 24 10 13 1012.9 1012.8 0.0
14/09:00pm 28.2 25.3 12.9 38 9.0 SSW 20 26 11 14 1012.7 1012.6 0.0
14/08:30pm 29.2 25.1 12.6 36 9.8 SSW 26 32 14 17 1012.5 1012.4 0.0
14/08:00pm 30.4 26.1 11.9 32 10.8 SSW 26 32 14 17 1012.3 1012.2 0.0
14/07:30pm 31.6 26.7 11.4 29 11.8 SSW 28 32 15 17 1011.9 1011.8 0.0
14/07:00pm 32.7 27.4 11.3 27 12.5 SSW 30 35 16 19 1011.6 1011.5 0.0
14/06:30pm 34.1 28.6 10.7 24 13.6 SSW 30 37 16 20 1011.4 1011.3 0.0
14/06:00pm 35.5 30.0 9.1 20 15.1 SSW 28 33 15 18 1011.1 1011.0 0.0
14/05:30pm 36.4 29.7 5.6 15 16.8 S 30 35 16 19 1011.0 1010.9 0.0
14/05:00pm 37.2 30.6 4.2 13 17.7 SSW 28 35 15 19 1011.1 1011.0 0.0
14/04:30pm 37.7 31.1 2.2 11 18.5 SSW 26 35 14 19 1011.1 1011.0 0.0
14/04:00pm 37.4 31.0 3.2 12 18.0 SSW 26 33 14 18 1011.4 1011.3 0.0
14/03:30pm 37.8 30.9 2.3 11 18.5 SSW 28 35 15 19 1011.6 1011.5 0.0
14/03:00pm 37.5 29.9 0.7 10 18.7 SSW 30 39 16 21 1012.2 1012.1 0.0
14/02:30pm 37.0 29.8 2.9 12 17.9 SW 30 37 16 20 1012.5 1012.4 0.0
14/02:00pm 38.2 30.9 2.6 11 18.7 SW 30 37 16 20 1012.8 1012.7 0.0
14/01:30pm 38.9 33.1 4.4 12 18.7 WSW 24 32 13 17 1013.0 1012.9 0.0
14/01:00pm 38.5 32.8 2.8 11 18.8 SW 22 32 12 17 1013.3 1013.3 0.0
14/12:30pm 38.6 34.5 4.1 12 18.6 SW 15 26 8 14 1013.7 1013.7 0.0
14/12:00pm 37.6 33.7 3.4 12 18.1 SSW 13 19 7 10 1014.0 1014.0 0.0
14/11:30am 36.3 34.1 3.5 13 17.3 NW 4 7 2 4 1014.4 1014.4 0.0
14/11:00am 36.0 33.0 4.3 14 16.9 WNW 9 15 5 8 1014.8 1014.8 0.0
14/10:30am 35.3 32.4 4.8 15 16.3 NNW 9 17 5 9 1015.2 1015.2 0.0
14/10:00am 34.1 31.0 3.8 15 15.8 NW 9 13 5 7 1015.5 1015.5 0.0
14/09:30am 32.4 30.2 8.0 22 13.5 NE 9 17 5 9 1015.8 1015.8 0.0
14/09:00am 31.1 29.9 10.4 28 11.8 NE 7 9 4 5 1016.0 1016.0 0.0
14/08:30am 29.1 26.2 8.2 27 11.4 E 13 28 7 15 1016.1 1016.1 0.0
14/08:00am 27.9 23.9 8.2 29 10.7 E 19 24 10 13 1016.4 1016.4 0.0
14/07:30am 26.6 23.2 7.6 30 10.1 E 15 19 8 10 1016.6 1016.6 0.0
14/07:00am 25.1 22.9 7.7 33 9.2 ENE 9 15 5 8 1016.6 1016.6 0.0
14/06:30am 23.6 21.1 8.1 37 8.2 ENE 11 15 6 8 1016.3 1016.3 0.0
14/06:00am 22.2 19.1 7.2 38 7.7 ENE 13 19 7 10 1016.1 1016.1 0.0
14/05:30am 21.7 18.2 7.2 39 7.5 NE 15 19 8 10 1015.8 1015.8 0.0
14/05:00am 19.0 16.6 7.1 46 6.0 N 9 13 5 7 1015.3 1015.3 0.0
14/04:30am 19.4 16.9 8.1 48 5.8 NW 11 13 6 7 1015.0 1015.0 0.0
14/04:00am 19.8 18.2 8.2 47 6.0 WNW 6 11 3 6 1015.0 1015.0 0.0
14/03:30am 20.4 18.7 8.4 46 6.3 W 7 13 4 7 1014.9 1014.9 0.0
14/03:00am 21.4 19.9 9.3 46 6.5 NW 7 9 4 5 1014.8 1014.8 0.0
14/02:30am 20.1 18.7 9.4 50 5.7 NNW 7 11 4 6 1014.9 1014.9 0.0
14/02:00am 22.5 19.6 8.2 40 7.5 SW 13 15 7 8 1014.9 1014.9 0.0
14/01:30am 23.4 20.3 8.7 39 7.9 SW 15 19 8 10 1015.0 1015.0 0.0
14/01:00am 23.9 20.4 8.7 38 8.1 SW 17 20 9 11 1015.3 1015.3 0.0
14/12:30am 24.5 21.1 9.3 38 8.3 SSW 17 20 9 11 1015.9 1015.9 0.0
14/12:00am 20.8 16.7 10.0 50 5.8 S 22 28 12 15 1016.3 1016.3 0.0
 
Date/Time
WST
Temp
°C
App
Temp
°C
Dew
Point
°C
Rel
Hum
%
Delta-T
°C
Wind Press
QNH
hPa
Press
MSL
hPa
Rain since
9am
mm
Dir  Spd
km/h
Gust
km/h
Spd
kts
Gust
kts
13/11:30pm 22.0 20.4 10.2 47 6.4 SW 9 13 5 7 1016.5 1016.5 0.0
13/11:00pm 22.5 20.5 10.0 45 6.8 SW 11 13 6 7 1016.8 1016.8 0.0
13/10:30pm 24.2 22.1 9.8 40 7.9 SW 11 13 6 7 1017.0 1017.0 0.0
13/10:00pm 24.7 21.1 9.8 39 8.2 SSW 19 22 10 12 1017.1 1017.1 0.0
13/09:30pm 25.5 21.9 9.7 37 8.7 S 19 22 10 12 1017.1 1017.1 0.0
13/09:00pm 26.4 21.9 10.1 36 9.1 SSW 24 30 13 16 1017.0 1017.0 0.0
13/08:30pm 27.5 21.9 10.2 34 9.7 S 30 35 16 19 1016.7 1016.7 0.0
13/08:00pm 28.6 23.0 10.3 32 10.3 S 30 35 16 19 1016.6 1016.6 0.0
13/07:30pm 29.4 23.8 11.5 33 10.3 S 32 37 17 20 1016.4 1016.4 0.0
13/07:00pm 30.3 26.2 11.3 31 11.0 SSW 24 33 13 18 1016.2 1016.2 0.0
13/06:30pm 31.7 28.1 10.4 27 12.2 SSW 20 26 11 14 1016.0 1016.0 0.0
13/06:00pm 32.8 29.1 10.2 25 13.0 SSW 20 28 11 15 1015.9 1015.9 0.0
13/05:30pm 33.6 29.7 10.9 25 13.2 SW 22 30 12 16 1015.7 1015.7 0.0
13/05:00pm 34.1 29.8 10.7 24 13.6 SW 24 30 13 16 1015.7 1015.7 0.0
13/04:30pm 34.2 30.3 9.4 22 14.2 WSW 20 28 11 15 1015.8 1015.8 0.0
13/04:00pm 35.0 31.7 9.4 21 14.7 W 17 24 9 13 1015.8 1015.8 0.0
13/03:30pm 35.7 32.7 4.1 14 16.7 NW 9 15 5 8 1016.2 1016.2 0.0
13/03:00pm 35.6 32.6 5.9 16 16.2 SE 11 19 6 10 1016.3 1016.3 0.0
13/02:30pm 35.1 31.8 4.6 15 16.2 NE 11 19 6 10 1016.7 1016.7 0.0
13/02:00pm 34.7 32.1 4.3 15 16.0 SSE 7 13 4 7 1017.2 1017.2 0.0
13/01:30pm 34.6 30.8 6.0 17 15.5 NE 15 26 8 14 1017.7 1017.7 0.0
13/01:00pm 33.6 30.0 6.8 19 14.6 ENE 15 24 8 13 1018.0 1018.0 0.0
13/12:30pm 33.3 30.0 6.6 19 14.5 E 13 20 7 11 1018.5 1018.5 0.0
13/12:00pm 32.3 28.4 7.2 21 13.7 ENE 17 30 9 16 1018.9 1018.9 0.0
13/11:30am 31.5 28.2 6.5 21 13.5 E 13 20 7 11 1019.4 1019.4 0.0
13/11:00am 30.5 26.7 7.7 24 12.4 ENE 17 30 9 16 1019.6 1019.6 0.0
13/10:30am 29.8 25.5 7.7 25 12.0 ENE 20 28 11 15 1019.8 1019.8 0.0
13/10:00am 29.0 24.9 8.7 28 11.2 E 20 28 11 15 1020.0 1020.0 0.0
13/09:30am 26.5 22.1 8.9 33 9.6 E 22 28 12 15 1020.3 1020.3 0.0
13/09:00am 24.6 19.4 9.0 37 8.4 E 26 33 14 18 1020.6 1020.6 0.0
13/08:30am 22.7 17.1 8.8 41 7.4 ENE 28 32 15 17 1021.0 1021.0 0.0
13/08:00am 20.8 15.1 8.4 45 6.5 E 28 39 15 21 1021.0 1021.0 0.0
13/07:30am 19.1 12.5 7.8 48 5.8 ENE 32 44 17 24 1021.1 1021.1 0.0
13/07:00am 17.9 11.6 7.3 50 5.3 ENE 30 39 16 21 1021.1 1021.1 0.0
13/06:30am 16.8 11.2 7.2 53 4.8 ENE 26 35 14 19 1021.0 1021.0 0.0
13/06:00am 16.3 11.4 7.0 54 4.6 ENE 22 32 12 17 1020.9 1020.9 0.0
13/05:30am 16.1 10.4 6.8 54 4.6 E 26 35 14 19 1020.5 1020.5 0.0
13/05:00am 16.2 10.9 6.6 53 4.7 ENE 24 33 13 18 1020.6 1020.6 0.0
13/04:30am 16.8 12.2 6.6 51 5.0 ENE 20 30 11 16 1020.4 1020.4 0.0
13/04:00am 17.3 12.7 6.5 49 5.3 E 20 32 11 17 1020.1 1020.1 0.0
13/03:30am 18.2 12.1 6.4 46 5.8 E 28 39 15 21 1019.9 1019.9 0.0
13/03:01am 18.8 12.3 6.3 44 6.2 ENE 30 48 16 26 1019.8 1019.8 0.0
13/03:00am 18.8 11.9 6.3 44 6.2 ENE 32 48 17 26 1019.8 1019.8 0.0
13/02:30am 19.9 13.2 5.5 39 7.1 E 30 41 16 22 1019.8 1019.8 0.0
13/02:13am 20.4 13.3 5.6 38 7.3 E 32 50 17 27 1019.7 1019.7 0.0
13/02:00am 20.6 13.3 5.4 37 7.5 ENE 33 48 18 26 1019.7 1019.7 0.0
13/01:35am 21.3 14.1 5.2 35 8.0 E 32 50 17 27 1019.7 1019.7 0.0
13/01:30am 21.5 14.3 5.0 34 8.1 E 32 41 17 22 1019.7 1019.7 0.0
13/01:00am 22.0 13.8 4.6 32 8.5 E 37 52 20 28 1019.6 1019.6 0.0
13/12:30am 22.7 14.3 3.8 29 9.2 E 37 56 20 30 1019.9 1019.9 0.0
13/12:17am 22.9 14.8 3.4 28 9.4 E 35 56 19 30 1019.9 1019.9 0.0
13/12:00am 23.2 15.2 3.7 28 9.5 E 35 48 19 26 1020.1 1020.1 0.0
 
Date/Time
WST
Temp
°C
App
Temp
°C
Dew
Point
°C
Rel
Hum
%
Delta-T
°C
Wind Press
QNH
hPa
Press
MSL
hPa
Rain since
9am
mm
Dir  Spd
km/h
Gust
km/h
Spd
kts
Gust
kts
12/11:30pm 23.9 16.2 3.2 26 10.0 E 33 46 18 25 1020.3 1020.3 0.0
12/11:00pm 24.3 16.8 3.6 26 10.1 E 32 52 17 28 1020.3 1020.3 0.0
12/10:53pm 24.4 16.9 3.7 26 10.2 E 32 50 17 27 1020.3 1020.3 0.0
12/10:30pm 24.8 17.1 3.5 25 10.4 E 33 48 18 26 1020.2 1020.2 0.0
12/10:12pm 25.2 17.6 3.8 25 10.6 ESE 33 52 18 28 1020.2 1020.2 0.0
12/10:00pm 25.3 17.9 3.9 25 10.6 ESE 32 46 17 25 1020.1 1020.1 0.0

Other formats

Comma delimited format used in spreadsheet applications
http://www.bom.gov.au/fwo/IDW60801/IDW60801.94610.axf

JavaScript Object Notation format (JSON) in row-major order
http://www.bom.gov.au/fwo/IDW60801/IDW60801.94610.json

Data quality

Most of these data are generated automatically and are frequently updated. Quality checks on data are not normally performed. It is possible for incorrect values to appear. Refer to information at About Latest Weather Observations and please check the disclaimer before using these data.